sensor_id;sensor_type;location;lat;lon;timestamp;temperature;humidity
18101;DHT22;9177;49.156;8.142;2023-02-28T00:01:19;19.60;75.40
18101;DHT22;9177;49.156;8.142;2023-02-28T00:03:46;19.60;75.40
18101;DHT22;9177;49.156;8.142;2023-02-28T00:06:13;19.60;75.40
18101;DHT22;9177;49.156;8.142;2023-02-28T00:08:40;19.60;75.50
18101;DHT22;9177;49.156;8.142;2023-02-28T00:11:09;19.60;75.40
18101;DHT22;9177;49.156;8.142;2023-02-28T00:13:39;19.60;75.40
18101;DHT22;9177;49.156;8.142;2023-02-28T00:16:09;19.60;75.50
18101;DHT22;9177;49.156;8.142;2023-02-28T00:18:37;19.60;75.50
18101;DHT22;9177;49.156;8.142;2023-02-28T00:21:04;19.60;75.50
18101;DHT22;9177;49.156;8.142;2023-02-28T00:23:31;19.60;75.50
18101;DHT22;9177;49.156;8.142;2023-02-28T00:25:58;19.60;75.50
18101;DHT22;9177;49.156;8.142;2023-02-28T00:28:25;19.60;75.50
18101;DHT22;9177;49.156;8.142;2023-02-28T00:30:52;19.60;75.50
18101;DHT22;9177;49.156;8.142;2023-02-28T00:33:20;19.60;75.50
18101;DHT22;9177;49.156;8.142;2023-02-28T00:35:47;19.60;75.50
18101;DHT22;9177;49.156;8.142;2023-02-28T00:38:15;19.60;75.60
18101;DHT22;9177;49.156;8.142;2023-02-28T00:40:42;19.60;75.50
18101;DHT22;9177;49.156;8.142;2023-02-28T00:43:09;19.60;75.60
18101;DHT22;9177;49.156;8.142;2023-02-28T00:45:36;19.60;75.60
18101;DHT22;9177;49.156;8.142;2023-02-28T00:48:03;19.60;75.60
18101;DHT22;9177;49.156;8.142;2023-02-28T00:50:31;19.60;75.60
18101;DHT22;9177;49.156;8.142;2023-02-28T00:52:58;19.60;75.60
18101;DHT22;9177;49.156;8.142;2023-02-28T00:55:25;19.60;75.60
18101;DHT22;9177;49.156;8.142;2023-02-28T00:57:52;19.60;75.60
18101;DHT22;9177;49.156;8.142;2023-02-28T01:00:19;19.60;75.60
18101;DHT22;9177;49.156;8.142;2023-02-28T01:02:46;19.60;75.60
18101;DHT22;9177;49.156;8.142;2023-02-28T01:05:13;19.60;75.60
18101;DHT22;9177;49.156;8.142;2023-02-28T01:07:41;19.60;75.70
18101;DHT22;9177;49.156;8.142;2023-02-28T01:10:09;19.60;75.60
18101;DHT22;9177;49.156;8.142;2023-02-28T01:12:36;19.60;75.70
18101;DHT22;9177;49.156;8.142;2023-02-28T01:15:03;19.60;75.70
18101;DHT22;9177;49.156;8.142;2023-02-28T01:17:30;19.60;75.60
18101;DHT22;9177;49.156;8.142;2023-02-28T01:19:57;19.60;75.70
18101;DHT22;9177;49.156;8.142;2023-02-28T01:22:24;19.60;75.70
18101;DHT22;9177;49.156;8.142;2023-02-28T01:24:52;19.60;75.70
18101;DHT22;9177;49.156;8.142;2023-02-28T01:27:19;19.60;75.80
18101;DHT22;9177;49.156;8.142;2023-02-28T01:29:50;19.60;75.70
18101;DHT22;9177;49.156;8.142;2023-02-28T01:32:17;19.60;75.80
18101;DHT22;9177;49.156;8.142;2023-02-28T01:34:43;19.60;75.80
18101;DHT22;9177;49.156;8.142;2023-02-28T01:37:10;19.60;75.70
18101;DHT22;9177;49.156;8.142;2023-02-28T01:39:37;19.60;75.80
18101;DHT22;9177;49.156;8.142;2023-02-28T01:42:05;19.60;75.80
18101;DHT22;9177;49.156;8.142;2023-02-28T01:44:55;19.60;75.80
18101;DHT22;9177;49.156;8.142;2023-02-28T01:47:23;19.60;75.80
18101;DHT22;9177;49.156;8.142;2023-02-28T01:49:51;19.60;75.80
18101;DHT22;9177;49.156;8.142;2023-02-28T01:52:19;19.60;75.80
18101;DHT22;9177;49.156;8.142;2023-02-28T01:54:50;19.60;75.80
18101;DHT22;9177;49.156;8.142;2023-02-28T01:57:21;19.60;75.80
18101;DHT22;9177;49.156;8.142;2023-02-28T01:59:52;19.60;75.90
18101;DHT22;9177;49.156;8.142;2023-02-28T02:02:21;19.60;75.90
18101;DHT22;9177;49.156;8.142;2023-02-28T02:04:51;19.60;75.80
18101;DHT22;9177;49.156;8.142;2023-02-28T02:07:20;19.60;75.90
18101;DHT22;9177;49.156;8.142;2023-02-28T02:09:47;19.60;75.90
18101;DHT22;9177;49.156;8.142;2023-02-28T02:12:24;19.60;75.90
18101;DHT22;9177;49.156;8.142;2023-02-28T02:15:00;19.60;75.90
18101;DHT22;9177;49.156;8.142;2023-02-28T02:17:35;19.60;76.20
18101;DHT22;9177;49.156;8.142;2023-02-28T02:23:40;19.60;75.90
18101;DHT22;9177;49.156;8.142;2023-02-28T02:26:41;19.60;76.00
18101;DHT22;9177;49.156;8.142;2023-02-28T02:29:31;19.60;76.00
18101;DHT22;9177;49.156;8.142;2023-02-28T02:32:20;19.60;76.00
18101;DHT22;9177;49.156;8.142;2023-02-28T02:34:57;19.60;75.90
18101;DHT22;9177;49.156;8.142;2023-02-28T02:37:32;19.60;75.90
18101;DHT22;9177;49.156;8.142;2023-02-28T02:40:09;19.50;75.90
18101;DHT22;9177;49.156;8.142;2023-02-28T02:42:41;19.60;75.90
18101;DHT22;9177;49.156;8.142;2023-02-28T02:45:14;19.50;75.90
18101;DHT22;9177;49.156;8.142;2023-02-28T02:47:43;19.50;76.00
18101;DHT22;9177;49.156;8.142;2023-02-28T02:50:15;19.50;75.90
18101;DHT22;9177;49.156;8.142;2023-02-28T02:52:46;19.60;76.00
18101;DHT22;9177;49.156;8.142;2023-02-28T02:55:15;19.50;75.90
18101;DHT22;9177;49.156;8.142;2023-02-28T02:57:46;19.50;75.90
18101;DHT22;9177;49.156;8.142;2023-02-28T03:00:15;19.50;76.00
18101;DHT22;9177;49.156;8.142;2023-02-28T03:02:44;19.60;76.10
18101;DHT22;9177;49.156;8.142;2023-02-28T03:05:19;19.50;76.00
18101;DHT22;9177;49.156;8.142;2023-02-28T03:07:48;19.50;76.00
18101;DHT22;9177;49.156;8.142;2023-02-28T03:10:35;19.50;76.00
18101;DHT22;9177;49.156;8.142;2023-02-28T03:16:23;19.50;76.10
18101;DHT22;9177;49.156;8.142;2023-02-28T03:19:02;19.50;76.10
18101;DHT22;9177;49.156;8.142;2023-02-28T03:21:35;19.50;76.10
18101;DHT22;9177;49.156;8.142;2023-02-28T03:24:07;19.50;76.10
18101;DHT22;9177;49.156;8.142;2023-02-28T03:26:41;19.50;76.10
18101;DHT22;9177;49.156;8.142;2023-02-28T03:29:15;19.50;76.10
18101;DHT22;9177;49.156;8.142;2023-02-28T03:31:46;19.50;76.10
18101;DHT22;9177;49.156;8.142;2023-02-28T03:34:18;19.50;76.10
18101;DHT22;9177;49.156;8.142;2023-02-28T03:36:51;19.50;76.10
18101;DHT22;9177;49.156;8.142;2023-02-28T03:39:20;19.50;76.10
18101;DHT22;9177;49.156;8.142;2023-02-28T03:41:51;19.50;76.10
18101;DHT22;9177;49.156;8.142;2023-02-28T03:44:22;19.50;76.10
18101;DHT22;9177;49.156;8.142;2023-02-28T03:46:58;19.50;76.10
18101;DHT22;9177;49.156;8.142;2023-02-28T03:49:30;19.50;76.10
18101;DHT22;9177;49.156;8.142;2023-02-28T03:52:03;19.50;76.20
18101;DHT22;9177;49.156;8.142;2023-02-28T03:54:33;19.50;76.20
18101;DHT22;9177;49.156;8.142;2023-02-28T03:57:05;19.50;76.20
18101;DHT22;9177;49.156;8.142;2023-02-28T03:59:36;19.50;76.20
18101;DHT22;9177;49.156;8.142;2023-02-28T04:02:04;19.50;76.20
18101;DHT22;9177;49.156;8.142;2023-02-28T04:04:31;19.50;76.20
18101;DHT22;9177;49.156;8.142;2023-02-28T04:07:04;19.50;76.30
18101;DHT22;9177;49.156;8.142;2023-02-28T04:09:31;19.50;76.20
18101;DHT22;9177;49.156;8.142;2023-02-28T04:11:58;19.50;76.30
18101;DHT22;9177;49.156;8.142;2023-02-28T04:14:25;19.50;76.20
18101;DHT22;9177;49.156;8.142;2023-02-28T04:16:52;19.50;76.30
18101;DHT22;9177;49.156;8.142;2023-02-28T04:19:19;19.50;76.30
18101;DHT22;9177;49.156;8.142;2023-02-28T04:21:48;19.50;76.30
18101;DHT22;9177;49.156;8.142;2023-02-28T04:24:18;19.50;76.30
18101;DHT22;9177;49.156;8.142;2023-02-28T04:26:46;19.50;76.20
18101;DHT22;9177;49.156;8.142;2023-02-28T04:29:18;19.50;76.30
18101;DHT22;9177;49.156;8.142;2023-02-28T04:31:45;19.50;76.30
18101;DHT22;9177;49.156;8.142;2023-02-28T04:34:12;19.50;76.30
18101;DHT22;9177;49.156;8.142;2023-02-28T04:36:39;19.50;76.30
18101;DHT22;9177;49.156;8.142;2023-02-28T04:39:06;19.50;76.30
18101;DHT22;9177;49.156;8.142;2023-02-28T04:41:34;19.50;76.30
18101;DHT22;9177;49.156;8.142;2023-02-28T04:44:01;19.50;77.10
18101;DHT22;9177;49.156;8.142;2023-02-28T04:46:28;19.50;76.30
18101;DHT22;9177;49.156;8.142;2023-02-28T04:48:56;19.50;76.30
18101;DHT22;9177;49.156;8.142;2023-02-28T04:51:23;19.50;76.30
18101;DHT22;9177;49.156;8.142;2023-02-28T04:53:50;19.50;76.30
18101;DHT22;9177;49.156;8.142;2023-02-28T04:56:18;19.50;76.20
18101;DHT22;9177;49.156;8.142;2023-02-28T04:58:48;19.50;76.30
18101;DHT22;9177;49.156;8.142;2023-02-28T05:01:21;19.50;76.30
18101;DHT22;9177;49.156;8.142;2023-02-28T05:03:48;19.50;76.30
18101;DHT22;9177;49.156;8.142;2023-02-28T05:06:15;19.50;76.30
18101;DHT22;9177;49.156;8.142;2023-02-28T05:08:42;19.50;76.30
18101;DHT22;9177;49.156;8.142;2023-02-28T05:11:14;19.50;76.30
18101;DHT22;9177;49.156;8.142;2023-02-28T05:13:42;19.50;76.30
18101;DHT22;9177;49.156;8.142;2023-02-28T05:16:10;19.50;76.30
18101;DHT22;9177;49.156;8.142;2023-02-28T05:18:37;19.50;76.30
18101;DHT22;9177;49.156;8.142;2023-02-28T05:21:04;19.50;76.30
18101;DHT22;9177;49.156;8.142;2023-02-28T05:23:31;19.50;76.30
18101;DHT22;9177;49.156;8.142;2023-02-28T05:25:58;19.50;76.30
18101;DHT22;9177;49.156;8.142;2023-02-28T05:28:25;19.50;76.30
18101;DHT22;9177;49.156;8.142;2023-02-28T05:30:52;19.50;76.40
18101;DHT22;9177;49.156;8.142;2023-02-28T05:33:20;19.50;76.40
18101;DHT22;9177;49.156;8.142;2023-02-28T05:35:47;19.50;76.30
18101;DHT22;9177;49.156;8.142;2023-02-28T05:38:14;19.50;76.30
18101;DHT22;9177;49.156;8.142;2023-02-28T05:40:43;19.50;76.30
18101;DHT22;9177;49.156;8.142;2023-02-28T05:43:10;19.50;76.40
18101;DHT22;9177;49.156;8.142;2023-02-28T05:45:38;19.50;76.40
18101;DHT22;9177;49.156;8.142;2023-02-28T05:48:05;19.50;76.40
18101;DHT22;9177;49.156;8.142;2023-02-28T05:50:34;19.50;76.40
18101;DHT22;9177;49.156;8.142;2023-02-28T05:53:00;19.50;76.40
18101;DHT22;9177;49.156;8.142;2023-02-28T05:55:27;19.50;76.40
18101;DHT22;9177;49.156;8.142;2023-02-28T05:57:54;19.50;76.40
18101;DHT22;9177;49.156;8.142;2023-02-28T06:00:21;19.50;76.40
18101;DHT22;9177;49.156;8.142;2023-02-28T06:02:48;19.50;76.40
18101;DHT22;9177;49.156;8.142;2023-02-28T06:05:17;19.50;76.40
18101;DHT22;9177;49.156;8.142;2023-02-28T06:07:46;19.50;76.40
18101;DHT22;9177;49.156;8.142;2023-02-28T06:10:13;19.50;76.40
18101;DHT22;9177;49.156;8.142;2023-02-28T06:12:41;19.50;76.40
18101;DHT22;9177;49.156;8.142;2023-02-28T06:15:11;19.50;76.40
18101;DHT22;9177;49.156;8.142;2023-02-28T06:17:39;19.50;76.40
18101;DHT22;9177;49.156;8.142;2023-02-28T06:20:08;19.50;76.40
18101;DHT22;9177;49.156;8.142;2023-02-28T06:22:36;19.50;76.40
18101;DHT22;9177;49.156;8.142;2023-02-28T06:25:05;19.50;76.40
18101;DHT22;9177;49.156;8.142;2023-02-28T06:27:33;19.50;76.40
18101;DHT22;9177;49.156;8.142;2023-02-28T06:30:00;19.50;76.40
18101;DHT22;9177;49.156;8.142;2023-02-28T06:32:27;19.50;76.40
18101;DHT22;9177;49.156;8.142;2023-02-28T06:34:55;19.50;76.40
18101;DHT22;9177;49.156;8.142;2023-02-28T06:37:23;19.50;76.50
18101;DHT22;9177;49.156;8.142;2023-02-28T06:39:51;19.50;76.50
18101;DHT22;9177;49.156;8.142;2023-02-28T06:42:20;19.50;76.50
18101;DHT22;9177;49.156;8.142;2023-02-28T06:44:47;19.50;76.50
18101;DHT22;9177;49.156;8.142;2023-02-28T06:47:14;19.50;76.60
18101;DHT22;9177;49.156;8.142;2023-02-28T06:49:40;19.50;76.60
18101;DHT22;9177;49.156;8.142;2023-02-28T06:52:07;19.50;76.60
18101;DHT22;9177;49.156;8.142;2023-02-28T06:54:36;19.50;76.60
18101;DHT22;9177;49.156;8.142;2023-02-28T06:57:03;19.50;76.60
18101;DHT22;9177;49.156;8.142;2023-02-28T06:59:31;19.50;76.70
18101;DHT22;9177;49.156;8.142;2023-02-28T07:01:59;19.50;76.70
18101;DHT22;9177;49.156;8.142;2023-02-28T07:04:26;19.50;76.70
18101;DHT22;9177;49.156;8.142;2023-02-28T07:06:54;19.50;76.70
18101;DHT22;9177;49.156;8.142;2023-02-28T07:09:21;19.50;76.70
18101;DHT22;9177;49.156;8.142;2023-02-28T07:11:48;19.50;76.70
18101;DHT22;9177;49.156;8.142;2023-02-28T07:14:15;19.50;76.80
18101;DHT22;9177;49.156;8.142;2023-02-28T07:16:43;19.50;76.80
18101;DHT22;9177;49.156;8.142;2023-02-28T07:19:11;19.50;76.80
18101;DHT22;9177;49.156;8.142;2023-02-28T07:21:38;19.50;76.80
18101;DHT22;9177;49.156;8.142;2023-02-28T07:24:05;19.50;76.80
18101;DHT22;9177;49.156;8.142;2023-02-28T07:26:32;19.50;76.80
18101;DHT22;9177;49.156;8.142;2023-02-28T07:29:00;19.50;76.90
18101;DHT22;9177;49.156;8.142;2023-02-28T07:31:27;19.50;76.80
18101;DHT22;9177;49.156;8.142;2023-02-28T07:33:56;19.50;76.90
18101;DHT22;9177;49.156;8.142;2023-02-28T07:36:22;19.50;76.90
18101;DHT22;9177;49.156;8.142;2023-02-28T07:38:49;19.50;77.00
18101;DHT22;9177;49.156;8.142;2023-02-28T07:41:16;19.50;77.00
18101;DHT22;9177;49.156;8.142;2023-02-28T07:43:44;19.50;77.00
18101;DHT22;9177;49.156;8.142;2023-02-28T07:46:12;19.50;77.00
18101;DHT22;9177;49.156;8.142;2023-02-28T07:48:40;19.50;77.00
18101;DHT22;9177;49.156;8.142;2023-02-28T07:51:08;19.50;77.00
18101;DHT22;9177;49.156;8.142;2023-02-28T07:53:36;19.50;76.90
18101;DHT22;9177;49.156;8.142;2023-02-28T07:56:03;19.50;77.00
18101;DHT22;9177;49.156;8.142;2023-02-28T07:58:30;19.50;77.00
18101;DHT22;9177;49.156;8.142;2023-02-28T08:01:04;19.50;77.00
18101;DHT22;9177;49.156;8.142;2023-02-28T08:03:31;19.50;77.00
18101;DHT22;9177;49.156;8.142;2023-02-28T08:05:58;19.50;77.00
18101;DHT22;9177;49.156;8.142;2023-02-28T08:08:27;19.50;77.00
18101;DHT22;9177;49.156;8.142;2023-02-28T08:10:54;19.50;77.00
18101;DHT22;9177;49.156;8.142;2023-02-28T08:13:21;19.50;77.00
18101;DHT22;9177;49.156;8.142;2023-02-28T08:15:48;19.50;77.10
18101;DHT22;9177;49.156;8.142;2023-02-28T08:18:15;19.50;77.10
18101;DHT22;9177;49.156;8.142;2023-02-28T08:20:42;19.50;77.10
18101;DHT22;9177;49.156;8.142;2023-02-28T08:23:09;19.50;77.10
18101;DHT22;9177;49.156;8.142;2023-02-28T08:25:37;19.50;77.10
18101;DHT22;9177;49.156;8.142;2023-02-28T08:28:04;19.50;77.10
18101;DHT22;9177;49.156;8.142;2023-02-28T08:30:31;19.50;77.10
18101;DHT22;9177;49.156;8.142;2023-02-28T08:32:57;19.50;77.10
18101;DHT22;9177;49.156;8.142;2023-02-28T08:35:24;19.50;77.10
18101;DHT22;9177;49.156;8.142;2023-02-28T08:37:51;19.50;77.10
18101;DHT22;9177;49.156;8.142;2023-02-28T08:40:18;19.50;77.20
18101;DHT22;9177;49.156;8.142;2023-02-28T08:42:46;19.50;77.20
18101;DHT22;9177;49.156;8.142;2023-02-28T08:45:14;19.50;77.20
18101;DHT22;9177;49.156;8.142;2023-02-28T08:47:41;19.50;77.30
18101;DHT22;9177;49.156;8.142;2023-02-28T08:50:09;19.50;77.30
18101;DHT22;9177;49.156;8.142;2023-02-28T08:52:37;19.50;77.30
18101;DHT22;9177;49.156;8.142;2023-02-28T08:55:04;19.50;77.40
18101;DHT22;9177;49.156;8.142;2023-02-28T08:57:32;19.50;77.40
18101;DHT22;9177;49.156;8.142;2023-02-28T09:00:01;19.50;77.40
18101;DHT22;9177;49.156;8.142;2023-02-28T09:02:29;19.50;77.40
18101;DHT22;9177;49.156;8.142;2023-02-28T09:04:56;19.50;77.30
18101;DHT22;9177;49.156;8.142;2023-02-28T09:07:23;19.50;77.30
18101;DHT22;9177;49.156;8.142;2023-02-28T09:09:50;19.50;77.40
18101;DHT22;9177;49.156;8.142;2023-02-28T09:12:21;19.50;77.40
18101;DHT22;9177;49.156;8.142;2023-02-28T09:14:48;19.50;77.30
18101;DHT22;9177;49.156;8.142;2023-02-28T09:17:16;19.50;77.30
18101;DHT22;9177;49.156;8.142;2023-02-28T09:19:43;19.50;77.40
18101;DHT22;9177;49.156;8.142;2023-02-28T09:22:11;19.50;77.40
18101;DHT22;9177;49.156;8.142;2023-02-28T09:24:38;19.50;77.40
18101;DHT22;9177;49.156;8.142;2023-02-28T09:27:05;19.50;77.40
18101;DHT22;9177;49.156;8.142;2023-02-28T09:29:32;19.50;77.40
18101;DHT22;9177;49.156;8.142;2023-02-28T09:32:01;19.60;77.50
18101;DHT22;9177;49.156;8.142;2023-02-28T09:34:29;19.60;77.40
18101;DHT22;9177;49.156;8.142;2023-02-28T09:36:56;19.60;77.30
18101;DHT22;9177;49.156;8.142;2023-02-28T09:39:24;19.60;77.30
18101;DHT22;9177;49.156;8.142;2023-02-28T09:41:53;19.60;77.40
18101;DHT22;9177;49.156;8.142;2023-02-28T09:44:24;19.70;77.30
18101;DHT22;9177;49.156;8.142;2023-02-28T09:46:56;19.80;77.20
18101;DHT22;9177;49.156;8.142;2023-02-28T09:49:33;19.80;77.10
18101;DHT22;9177;49.156;8.142;2023-02-28T09:52:03;19.90;77.00
18101;DHT22;9177;49.156;8.142;2023-02-28T09:54:32;20.00;77.00
18101;DHT22;9177;49.156;8.142;2023-02-28T09:57:04;20.00;76.90
18101;DHT22;9177;49.156;8.142;2023-02-28T09:59:41;20.00;76.90
18101;DHT22;9177;49.156;8.142;2023-02-28T10:02:21;20.00;76.80
18101;DHT22;9177;49.156;8.142;2023-02-28T10:04:54;20.10;76.90
18101;DHT22;9177;49.156;8.142;2023-02-28T10:07:36;20.10;76.90
18101;DHT22;9177;49.156;8.142;2023-02-28T10:10:19;20.20;76.80
18101;DHT22;9177;49.156;8.142;2023-02-28T10:12:52;20.20;76.80
18101;DHT22;9177;49.156;8.142;2023-02-28T10:15:21;20.20;76.80
18101;DHT22;9177;49.156;8.142;2023-02-28T10:17:53;20.30;76.80
18101;DHT22;9177;49.156;8.142;2023-02-28T10:20:23;20.30;76.80
18101;DHT22;9177;49.156;8.142;2023-02-28T10:22:58;20.30;76.80
18101;DHT22;9177;49.156;8.142;2023-02-28T10:25:28;20.20;76.90
18101;DHT22;9177;49.156;8.142;2023-02-28T10:28:01;20.30;77.00
18101;DHT22;9177;49.156;8.142;2023-02-28T10:30:28;20.20;77.00
18101;DHT22;9177;49.156;8.142;2023-02-28T10:32:55;20.30;77.00
18101;DHT22;9177;49.156;8.142;2023-02-28T10:35:25;20.30;77.10
18101;DHT22;9177;49.156;8.142;2023-02-28T10:37:55;20.30;77.10
18101;DHT22;9177;49.156;8.142;2023-02-28T10:40:30;20.30;77.20
18101;DHT22;9177;49.156;8.142;2023-02-28T10:42:59;20.30;77.10
18101;DHT22;9177;49.156;8.142;2023-02-28T10:45:28;20.30;77.20
18101;DHT22;9177;49.156;8.142;2023-02-28T10:47:59;20.30;77.30
18101;DHT22;9177;49.156;8.142;2023-02-28T10:50:34;20.30;77.20
18101;DHT22;9177;49.156;8.142;2023-02-28T10:53:34;20.30;77.20
18101;DHT22;9177;49.156;8.142;2023-02-28T10:56:04;20.30;77.30
18101;DHT22;9177;49.156;8.142;2023-02-28T10:58:46;20.30;77.20
18101;DHT22;9177;49.156;8.142;2023-02-28T11:01:15;20.30;77.30
18101;DHT22;9177;49.156;8.142;2023-02-28T11:03:42;20.30;77.30
18101;DHT22;9177;49.156;8.142;2023-02-28T11:06:15;20.30;77.40
18101;DHT22;9177;49.156;8.142;2023-02-28T11:08:48;20.30;77.40
18101;DHT22;9177;49.156;8.142;2023-02-28T11:11:16;20.30;77.50
18101;DHT22;9177;49.156;8.142;2023-02-28T11:13:44;20.30;77.60
18101;DHT22;9177;49.156;8.142;2023-02-28T11:16:14;20.30;77.60
18101;DHT22;9177;49.156;8.142;2023-02-28T11:18:46;20.20;77.60
18101;DHT22;9177;49.156;8.142;2023-02-28T11:21:21;20.20;77.70
18101;DHT22;9177;49.156;8.142;2023-02-28T11:23:51;20.20;77.70
18101;DHT22;9177;49.156;8.142;2023-02-28T11:26:37;20.20;77.80
18101;DHT22;9177;49.156;8.142;2023-02-28T11:29:11;20.10;78.70
18101;DHT22;9177;49.156;8.142;2023-02-28T11:31:39;20.10;77.90
18101;DHT22;9177;49.156;8.142;2023-02-28T11:34:22;20.10;78.80
18101;DHT22;9177;49.156;8.142;2023-02-28T11:36:53;20.10;78.10
18101;DHT22;9177;49.156;8.142;2023-02-28T11:39:20;20.10;78.20
18101;DHT22;9177;49.156;8.142;2023-02-28T11:44:52;20.10;78.10
18101;DHT22;9177;49.156;8.142;2023-02-28T11:47:28;20.20;78.20
18101;DHT22;9177;49.156;8.142;2023-02-28T11:50:12;20.30;78.10
18101;DHT22;9177;49.156;8.142;2023-02-28T11:52:51;20.40;78.20
18101;DHT22;9177;49.156;8.142;2023-02-28T11:55:24;20.40;78.20
18101;DHT22;9177;49.156;8.142;2023-02-28T12:01:05;20.50;78.20
18101;DHT22;9177;49.156;8.142;2023-02-28T12:03:40;20.50;78.40
18101;DHT22;9177;49.156;8.142;2023-02-28T12:06:18;20.40;78.70
18101;DHT22;9177;49.156;8.142;2023-02-28T12:09:04;20.50;78.70
18101;DHT22;9177;49.156;8.142;2023-02-28T12:11:45;20.50;78.70
18101;DHT22;9177;49.156;8.142;2023-02-28T12:14:30;20.50;78.80
18101;DHT22;9177;49.156;8.142;2023-02-28T12:17:10;20.70;78.60
18101;DHT22;9177;49.156;8.142;2023-02-28T12:19:45;20.80;78.20
18101;DHT22;9177;49.156;8.142;2023-02-28T12:22:29;20.80;78.30
18101;DHT22;9177;49.156;8.142;2023-02-28T12:25:21;20.80;78.40
18101;DHT22;9177;49.156;8.142;2023-02-28T12:27:51;20.70;78.30
18101;DHT22;9177;49.156;8.142;2023-02-28T12:30:22;20.60;78.40
18101;DHT22;9177;49.156;8.142;2023-02-28T12:32:54;20.60;78.70
18101;DHT22;9177;49.156;8.142;2023-02-28T12:35:26;20.50;78.90
18101;DHT22;9177;49.156;8.142;2023-02-28T12:37:58;20.50;78.80
18101;DHT22;9177;49.156;8.142;2023-02-28T12:40:34;20.60;78.80
18101;DHT22;9177;49.156;8.142;2023-02-28T12:43:08;20.70;78.50
18101;DHT22;9177;49.156;8.142;2023-02-28T12:45:41;20.70;78.70
18101;DHT22;9177;49.156;8.142;2023-02-28T12:48:13;20.70;78.80
18101;DHT22;9177;49.156;8.142;2023-02-28T12:50:42;20.70;78.80
18101;DHT22;9177;49.156;8.142;2023-02-28T12:53:13;20.80;78.80
18101;DHT22;9177;49.156;8.142;2023-02-28T12:55:48;20.80;78.30
18101;DHT22;9177;49.156;8.142;2023-02-28T12:58:22;20.90;78.20
18101;DHT22;9177;49.156;8.142;2023-02-28T13:01:11;21.00;78.90
18101;DHT22;9177;49.156;8.142;2023-02-28T13:03:52;21.10;78.20
18101;DHT22;9177;49.156;8.142;2023-02-28T13:06:34;21.10;77.90
18101;DHT22;9177;49.156;8.142;2023-02-28T13:09:09;21.20;78.00
18101;DHT22;9177;49.156;8.142;2023-02-28T13:11:43;21.20;78.10
18101;DHT22;9177;49.156;8.142;2023-02-28T13:14:23;21.20;77.70
18101;DHT22;9177;49.156;8.142;2023-02-28T13:16:58;21.20;77.60
18101;DHT22;9177;49.156;8.142;2023-02-28T13:19:27;21.20;77.60
18101;DHT22;9177;49.156;8.142;2023-02-28T13:21:55;21.20;77.70
18101;DHT22;9177;49.156;8.142;2023-02-28T13:24:45;21.20;77.60
18101;DHT22;9177;49.156;8.142;2023-02-28T13:27:31;21.10;77.90
18101;DHT22;9177;49.156;8.142;2023-02-28T13:29:59;21.20;77.90
18101;DHT22;9177;49.156;8.142;2023-02-28T13:32:33;21.20;77.80
18101;DHT22;9177;49.156;8.142;2023-02-28T13:44:08;21.40;77.20
18101;DHT22;9177;49.156;8.142;2023-02-28T13:46:38;21.50;77.10
18101;DHT22;9177;49.156;8.142;2023-02-28T13:49:26;21.50;77.00
18101;DHT22;9177;49.156;8.142;2023-02-28T13:52:02;21.50;77.10
18101;DHT22;9177;49.156;8.142;2023-02-28T13:54:39;21.40;77.00
18101;DHT22;9177;49.156;8.142;2023-02-28T13:57:21;21.50;76.90
18101;DHT22;9177;49.156;8.142;2023-02-28T14:00:06;21.50;77.10
18101;DHT22;9177;49.156;8.142;2023-02-28T14:02:57;21.50;76.90
18101;DHT22;9177;49.156;8.142;2023-02-28T14:05:29;21.50;76.80
18101;DHT22;9177;49.156;8.142;2023-02-28T14:08:02;21.60;76.70
18101;DHT22;9177;49.156;8.142;2023-02-28T14:10:32;21.60;76.60
18101;DHT22;9177;49.156;8.142;2023-02-28T14:13:03;21.60;76.70
18101;DHT22;9177;49.156;8.142;2023-02-28T14:15:54;21.60;76.90
18101;DHT22;9177;49.156;8.142;2023-02-28T14:18:30;21.60;77.00
18101;DHT22;9177;49.156;8.142;2023-02-28T14:21:08;21.60;77.00
18101;DHT22;9177;49.156;8.142;2023-02-28T14:26:52;21.60;77.30
18101;DHT22;9177;49.156;8.142;2023-02-28T14:29:44;21.60;77.20
18101;DHT22;9177;49.156;8.142;2023-02-28T14:32:22;21.60;77.40
18101;DHT22;9177;49.156;8.142;2023-02-28T14:34:55;21.60;77.40
18101;DHT22;9177;49.156;8.142;2023-02-28T14:37:27;21.60;77.60
18101;DHT22;9177;49.156;8.142;2023-02-28T14:39:55;21.60;77.70
18101;DHT22;9177;49.156;8.142;2023-02-28T14:42:29;21.60;77.50
18101;DHT22;9177;49.156;8.142;2023-02-28T14:44:56;21.50;77.70
18101;DHT22;9177;49.156;8.142;2023-02-28T14:47:27;21.50;77.70
18101;DHT22;9177;49.156;8.142;2023-02-28T14:49:55;21.50;77.90
18101;DHT22;9177;49.156;8.142;2023-02-28T14:52:25;21.50;77.90
18101;DHT22;9177;49.156;8.142;2023-02-28T14:54:53;21.60;78.10
18101;DHT22;9177;49.156;8.142;2023-02-28T14:57:24;21.50;78.20
18101;DHT22;9177;49.156;8.142;2023-02-28T14:59:59;21.50;79.10
18101;DHT22;9177;49.156;8.142;2023-02-28T15:02:30;21.50;79.20
18101;DHT22;9177;49.156;8.142;2023-02-28T15:04:59;21.50;76.90
18101;DHT22;9177;49.156;8.142;2023-02-28T15:07:26;21.50;76.40
18101;DHT22;9177;49.156;8.142;2023-02-28T15:10:16;21.40;76.30
18101;DHT22;9177;49.156;8.142;2023-02-28T15:12:49;21.40;77.00
18101;DHT22;9177;49.156;8.142;2023-02-28T15:15:18;21.40;77.40
18101;DHT22;9177;49.156;8.142;2023-02-28T15:17:51;21.40;79.20
18101;DHT22;9177;49.156;8.142;2023-02-28T15:20:19;21.40;79.30
18101;DHT22;9177;49.156;8.142;2023-02-28T15:22:48;21.40;80.00
18101;DHT22;9177;49.156;8.142;2023-02-28T15:25:19;21.40;80.10
18101;DHT22;9177;49.156;8.142;2023-02-28T15:27:49;21.40;80.50
18101;DHT22;9177;49.156;8.142;2023-02-28T15:30:19;21.40;79.10
18101;DHT22;9177;49.156;8.142;2023-02-28T15:35:44;21.40;78.70
18101;DHT22;9177;49.156;8.142;2023-02-28T15:38:15;21.30;78.90
18101;DHT22;9177;49.156;8.142;2023-02-28T15:40:44;21.30;79.10
18101;DHT22;9177;49.156;8.142;2023-02-28T15:43:17;21.20;79.00
18101;DHT22;9177;49.156;8.142;2023-02-28T15:45:46;21.20;79.00
18101;DHT22;9177;49.156;8.142;2023-02-28T15:48:17;21.10;79.00
18101;DHT22;9177;49.156;8.142;2023-02-28T15:50:48;21.20;79.10
18101;DHT22;9177;49.156;8.142;2023-02-28T15:53:18;21.20;79.10
18101;DHT22;9177;49.156;8.142;2023-02-28T15:55:53;21.20;78.90
18101;DHT22;9177;49.156;8.142;2023-02-28T15:58:22;21.10;78.90
18101;DHT22;9177;49.156;8.142;2023-02-28T16:01:08;21.10;79.00
18101;DHT22;9177;49.156;8.142;2023-02-28T16:03:42;21.00;79.20
18101;DHT22;9177;49.156;8.142;2023-02-28T16:06:26;21.00;79.00
18101;DHT22;9177;49.156;8.142;2023-02-28T16:08:55;20.90;79.00
18101;DHT22;9177;49.156;8.142;2023-02-28T16:11:22;20.90;79.10
18101;DHT22;9177;49.156;8.142;2023-02-28T16:13:50;20.80;79.00
18101;DHT22;9177;49.156;8.142;2023-02-28T16:16:18;20.80;79.20
18101;DHT22;9177;49.156;8.142;2023-02-28T16:18:46;20.70;79.20
18101;DHT22;9177;49.156;8.142;2023-02-28T16:21:12;20.70;79.20
18101;DHT22;9177;49.156;8.142;2023-02-28T16:23:44;20.60;79.60
18101;DHT22;9177;49.156;8.142;2023-02-28T16:26:18;20.60;79.90
18101;DHT22;9177;49.156;8.142;2023-02-28T16:28:46;20.50;79.40
18101;DHT22;9177;49.156;8.142;2023-02-28T16:31:13;20.50;79.90
18101;DHT22;9177;49.156;8.142;2023-02-28T16:33:42;20.40;79.90
18101;DHT22;9177;49.156;8.142;2023-02-28T16:36:14;20.40;80.20